createdAt,value
2023-03-04T00:00:04.156Z,24.23
2023-03-04T00:01:04.155Z,24.26
2023-03-04T00:02:04.155Z,24.25
2023-03-04T00:03:04.148Z,24.23
2023-03-04T00:04:04.126Z,24.23
2023-03-04T00:05:04.084Z,24.23
2023-03-04T00:06:04.087Z,24.23
2023-03-04T00:07:04.062Z,24.25
2023-03-04T00:08:04.054Z,24.23
2023-03-04T00:09:04.131Z,24.22
2023-03-04T00:10:04.031Z,24.23
2023-03-04T00:11:04.001Z,24.23
2023-03-04T00:12:04.001Z,24.23
2023-03-04T00:13:03.971Z,24.23
2023-03-04T00:14:03.981Z,24.25
2023-03-04T00:15:03.979Z,24.23
2023-03-04T00:16:03.953Z,24.23
2023-03-04T00:17:03.918Z,24.23
2023-03-04T00:18:03.907Z,24.26
2023-03-04T00:19:03.903Z,24.25
2023-03-04T00:20:03.878Z,24.23
2023-03-04T00:21:03.867Z,24.26
2023-03-04T00:22:03.849Z,24.26
2023-03-04T00:23:03.818Z,24.28
2023-03-04T00:24:03.814Z,24.28
2023-03-04T00:25:03.792Z,24.28
2023-03-04T00:26:03.769Z,24.25
2023-03-04T00:27:03.755Z,24.26
2023-03-04T00:28:03.720Z,24.28
2023-03-04T00:29:03.711Z,24.26
2023-03-04T00:30:03.678Z,24.26
2023-03-04T00:31:03.689Z,24.28
2023-03-04T00:32:03.715Z,24.23
2023-03-04T00:33:03.626Z,24.26
2023-03-04T00:34:03.615Z,24.26
2023-03-04T00:35:03.577Z,24.25
2023-03-04T00:36:03.571Z,24.28
2023-03-04T00:37:03.538Z,24.26
2023-03-04T00:38:03.522Z,24.25
2023-03-04T00:39:03.485Z,24.23
2023-03-04T00:40:03.467Z,24.23
2023-03-04T00:41:03.452Z,24.23
2023-03-04T00:42:03.432Z,24.22
2023-03-04T00:43:03.408Z,24.23
2023-03-04T00:44:03.373Z,24.22
2023-03-04T00:45:03.364Z,24.21
2023-03-04T00:46:03.371Z,24.21
2023-03-04T00:47:03.308Z,24.22
2023-03-04T00:48:03.291Z,24.22
2023-03-04T00:49:03.282Z,24.23
2023-03-04T00:50:03.259Z,24.23
2023-03-04T00:51:03.232Z,24.25
2023-03-04T00:52:03.211Z,24.25
2023-03-04T00:53:03.198Z,24.25
2023-03-04T00:54:03.173Z,24.26
2023-03-04T00:55:03.157Z,24.22
2023-03-04T00:56:03.151Z,24.23
2023-03-04T00:57:03.113Z,24.23
2023-03-04T00:58:03.088Z,24.25
2023-03-04T00:59:03.079Z,24.23
2023-03-04T01:00:03.041Z,24.25
2023-03-04T01:01:03.075Z,24.23
2023-03-04T01:02:03.049Z,24.22
2023-03-04T01:03:02.994Z,24.22
2023-03-04T01:04:02.978Z,24.22
2023-03-04T01:05:02.943Z,24.22
2023-03-04T01:06:02.927Z,24.19
2023-03-04T01:07:02.915Z,24.21
2023-03-04T01:08:02.895Z,24.19
2023-03-04T01:09:02.862Z,24.22
2023-03-04T01:10:02.849Z,24.21
2023-03-04T01:11:02.815Z,24.18
2023-03-04T01:12:02.801Z,24.21
2023-03-04T01:13:02.779Z,24.21
2023-03-04T01:14:02.756Z,24.18
2023-03-04T01:15:02.730Z,24.22
2023-03-04T01:16:02.705Z,24.18
2023-03-04T01:17:02.773Z,24.15
2023-03-04T01:18:02.732Z,24.19
2023-03-04T01:19:02.644Z,24.21
2023-03-04T01:20:02.623Z,24.19
2023-03-04T01:21:02.618Z,24.18
2023-03-04T01:22:02.592Z,24.15
2023-03-04T01:23:02.582Z,24.16
2023-03-04T01:24:02.571Z,24.16
2023-03-04T01:25:02.558Z,24.15
2023-03-04T01:26:02.521Z,24.18
2023-03-04T01:27:02.513Z,24.16
2023-03-04T01:28:02.472Z,24.15
2023-03-04T01:29:02.446Z,24.15
2023-03-04T01:30:02.420Z,24.15
2023-03-04T01:31:02.459Z,24.15
2023-03-04T01:32:02.432Z,24.16
2023-03-04T01:33:02.366Z,24.15
2023-03-04T01:34:02.346Z,24.15
2023-03-04T01:35:02.334Z,24.16
2023-03-04T01:36:02.318Z,24.16
2023-03-04T01:37:02.311Z,24.15
2023-03-04T01:38:02.278Z,24.15
2023-03-04T01:39:02.266Z,24.16
2023-03-04T01:40:02.255Z,24.15
2023-03-04T01:41:02.246Z,24.15
2023-03-04T01:42:02.219Z,24.15
2023-03-04T01:43:02.208Z,24.14
2023-03-04T01:44:02.192Z,24.18
2023-03-04T01:45:02.169Z,24.18
2023-03-04T01:46:02.169Z,24.15
2023-03-04T01:47:02.126Z,24.16
2023-03-04T01:48:02.118Z,24.16
2023-03-04T01:49:02.111Z,24.18
2023-03-04T01:50:02.098Z,24.16
2023-03-04T01:51:02.059Z,24.15
2023-03-04T01:52:02.069Z,24.18
2023-03-04T01:53:02.032Z,24.15
2023-03-04T01:54:02.011Z,24.16
2023-03-04T01:55:01.988Z,24.14
2023-03-04T01:56:01.976Z,24.16
2023-03-04T01:57:01.973Z,24.15
2023-03-04T01:58:01.932Z,24.15
2023-03-04T01:59:41.750Z,24.12
2023-03-04T02:00:01.937Z,24.14
2023-03-04T02:01:01.881Z,24.12
2023-03-04T02:02:01.865Z,24.15
2023-03-04T02:03:01.834Z,24.14
2023-03-04T02:04:01.827Z,24.12
2023-03-04T02:05:01.815Z,24.14
2023-03-04T02:06:01.775Z,24.12
2023-03-04T02:07:01.757Z,24.12
2023-03-04T02:08:01.777Z,24.09
2023-03-04T02:09:01.735Z,24.08
2023-03-04T02:10:01.706Z,24.12
2023-03-04T02:11:01.690Z,24.11
2023-03-04T02:12:01.674Z,24.11
2023-03-04T02:13:01.657Z,24.11
2023-03-04T02:14:01.625Z,24.14
2023-03-04T02:15:01.609Z,24.08
2023-03-04T02:16:01.636Z,24.12
2023-03-04T02:17:01.557Z,24.12
2023-03-04T02:18:01.541Z,24.09
2023-03-04T02:19:01.522Z,24.11
2023-03-04T02:20:01.502Z,24.11
2023-03-04T02:21:01.505Z,24.11
2023-03-04T02:22:01.462Z,24.12
2023-03-04T02:23:01.441Z,24.11
2023-03-04T02:24:01.430Z,24.12
2023-03-04T02:25:01.421Z,24.11
2023-03-04T02:26:01.406Z,24.12
2023-03-04T02:27:01.403Z,24.14
2023-03-04T02:28:01.385Z,24.11
2023-03-04T02:29:02.298Z,24.09
2023-03-04T02:30:01.353Z,24.12
2023-03-04T02:31:01.363Z,24.11
2023-03-04T02:32:01.384Z,24.11
2023-03-04T02:33:01.314Z,24.09
2023-03-04T02:34:01.289Z,24.11
2023-03-04T02:35:01.280Z,24.12
2023-03-04T02:36:01.256Z,24.11
2023-03-04T02:37:01.254Z,24.11
2023-03-04T02:38:01.232Z,24.09
2023-03-04T02:39:01.221Z,24.11
2023-03-04T02:40:01.200Z,24.11
2023-03-04T02:41:01.228Z,24.11
2023-03-04T02:42:01.198Z,24.07
2023-03-04T02:43:01.183Z,24.08
2023-03-04T02:44:01.151Z,24.11
2023-03-04T02:45:01.155Z,24.08
2023-03-04T02:46:01.135Z,24.08
2023-03-04T02:47:01.141Z,24.11
2023-03-04T02:48:01.125Z,24.07
2023-03-04T02:49:01.103Z,24.08
2023-03-04T02:50:01.080Z,24.08
2023-03-04T02:51:01.076Z,24.11
2023-03-04T02:52:01.043Z,24.08
2023-03-04T02:53:01.044Z,24.09
2023-03-04T02:54:01.010Z,24.08
2023-03-04T02:55:00.988Z,24.09
2023-03-04T02:56:00.977Z,24.09
2023-03-04T02:57:00.971Z,24.08
2023-03-04T02:58:00.955Z,24.08
2023-03-04T02:59:00.917Z,24.09
2023-03-04T03:00:00.901Z,24.09
2023-03-04T03:01:00.893Z,24.12
2023-03-04T03:02:00.905Z,24.12
2023-03-04T03:03:00.882Z,24.07
2023-03-04T03:04:00.810Z,24.07
2023-03-04T03:05:00.793Z,24.07
2023-03-04T03:06:00.763Z,24.07
2023-03-04T03:07:00.745Z,24.08
2023-03-04T03:08:00.738Z,24.08
2023-03-04T03:09:00.696Z,24.07
2023-03-04T03:10:00.679Z,24.08
2023-03-04T03:11:00.675Z,24.09
2023-03-04T03:12:00.638Z,24.08
2023-03-04T03:13:00.633Z,24.09
2023-03-04T03:14:00.605Z,24.11
2023-03-04T03:15:00.600Z,24.09
2023-03-04T03:16:00.626Z,24.08
2023-03-04T03:17:00.567Z,24.09
2023-03-04T03:18:00.557Z,24.08
2023-03-04T03:19:00.542Z,24.07
2023-03-04T03:20:00.527Z,24.08
2023-03-04T03:21:00.530Z,24.08
2023-03-04T03:22:00.510Z,24.07
2023-03-04T03:23:00.494Z,24.08
2023-03-04T03:24:00.477Z,24.09
2023-03-04T03:25:00.463Z,24.07
2023-03-04T03:26:00.457Z,24.07
2023-03-04T03:27:00.428Z,24.07
2023-03-04T03:28:00.400Z,24.09
2023-03-04T03:29:00.383Z,24.07
2023-03-04T03:30:00.355Z,24.07
2023-03-04T03:31:00.337Z,24.09
2023-03-04T03:32:00.433Z,24.08
2023-03-04T03:33:00.304Z,24.07
2023-03-04T03:34:00.292Z,24.05
2023-03-04T03:35:00.256Z,24.07
2023-03-04T03:36:00.393Z,24.07
2023-03-04T03:37:00.220Z,24.08
2023-03-04T03:38:00.206Z,24.07
2023-03-04T03:39:00.197Z,24.09
2023-03-04T03:40:00.203Z,24.07
2023-03-04T03:41:00.142Z,24.05
2023-03-04T03:42:00.137Z,24.08
2023-03-04T03:43:00.119Z,24.07
2023-03-04T03:44:00.095Z,24.07
2023-03-04T03:45:00.060Z,24.08
2023-03-04T03:46:00.146Z,24.05
2023-03-04T03:47:00.033Z,24.05
2023-03-04T03:48:00.019Z,24.08
2023-03-04T03:49:00.009Z,24.05
2023-03-04T03:49:59.986Z,24.05
2023-03-04T03:50:59.978Z,24.05
2023-03-04T03:51:59.946Z,24.05
2023-03-04T03:52:59.939Z,24.05
2023-03-04T03:53:59.908Z,24.01
2023-03-04T03:55:01.712Z,24.03
2023-03-04T03:55:59.879Z,24.03
2023-03-04T03:56:59.848Z,24.01
2023-03-04T03:57:59.830Z,24.01
2023-03-04T03:58:59.817Z,24.01
2023-03-04T03:59:59.807Z,24.00
2023-03-04T04:00:59.787Z,24.03
2023-03-04T04:01:59.840Z,24.01
2023-03-04T04:02:59.816Z,24.01
2023-03-04T04:03:59.743Z,24.00
2023-03-04T04:04:59.731Z,23.97
2023-03-04T04:05:59.708Z,23.98
2023-03-04T04:06:59.698Z,23.98
2023-03-04T04:07:59.682Z,23.94
2023-03-04T04:08:59.644Z,23.95
2023-03-04T04:09:59.635Z,23.95
2023-03-04T04:10:59.615Z,23.98
2023-03-04T04:11:59.582Z,23.97
2023-03-04T04:12:59.579Z,23.95
2023-03-04T04:13:59.552Z,23.97
2023-03-04T04:14:59.551Z,23.95
2023-03-04T04:15:59.535Z,23.95
2023-03-04T04:16:59.511Z,23.95
2023-03-04T04:17:59.483Z,23.95
2023-03-04T04:18:59.473Z,23.95
2023-03-04T04:20:59.432Z,23.97
2023-03-04T04:21:59.411Z,23.97
2023-03-04T04:30:59.316Z,23.91
2023-03-04T04:32:59.186Z,23.87
2023-03-04T04:33:59.165Z,23.88
2023-03-04T04:34:59.156Z,23.88
2023-03-04T04:35:59.168Z,23.88
2023-03-04T04:36:59.106Z,23.85
2023-03-04T04:37:59.114Z,23.85
2023-03-04T04:38:59.076Z,23.88
2023-03-04T04:39:59.075Z,23.83
2023-03-04T04:40:59.039Z,23.85
2023-03-04T04:41:59.008Z,23.85
2023-03-04T04:42:59.002Z,23.85
2023-03-04T04:59:58.724Z,23.80
2023-03-04T07:30:56.903Z,23.78
2023-03-04T07:31:57.094Z,23.84
2023-03-04T07:32:56.872Z,23.81
2023-03-04T07:33:56.855Z,23.78
2023-03-04T07:34:56.834Z,23.81
2023-03-04T07:35:56.825Z,23.80
2023-03-04T07:36:56.802Z,23.83
2023-03-04T07:37:56.798Z,23.83
2023-03-04T07:38:56.789Z,23.84
2023-03-04T07:39:56.770Z,23.81
2023-03-04T07:40:56.760Z,23.84
2023-03-04T07:41:56.740Z,23.83
2023-03-04T07:42:56.737Z,23.83
2023-03-04T07:43:56.723Z,23.85
2023-03-04T07:44:56.725Z,23.85
2023-03-04T07:45:56.735Z,23.83
2023-03-04T07:46:56.674Z,23.85
2023-03-04T07:47:56.662Z,23.85
2023-03-04T07:48:56.646Z,23.87
2023-03-04T08:51:55.764Z,24.42
2023-03-04T08:52:55.730Z,24.40
2023-03-04T08:53:55.712Z,24.44
2023-03-04T08:54:55.700Z,24.46
2023-03-04T08:55:55.667Z,24.48
2023-03-04T08:56:55.641Z,24.46
2023-03-04T08:57:55.629Z,24.43
2023-03-04T08:58:55.600Z,24.48
2023-03-04T08:59:55.580Z,24.49
2023-03-04T09:00:55.547Z,24.49
2023-03-04T09:01:55.550Z,24.52
2023-03-04T09:02:55.513Z,24.50
2023-03-04T09:03:55.555Z,24.50
2023-03-04T09:04:55.491Z,24.52
2023-03-04T09:05:55.454Z,24.53
2023-03-04T09:06:55.428Z,24.53
2023-03-04T09:07:55.411Z,24.53
2023-03-04T09:08:55.387Z,24.52
2023-03-04T09:09:55.353Z,24.56
2023-03-04T09:10:55.322Z,24.56
2023-03-04T09:11:55.301Z,24.58
2023-03-04T09:12:55.286Z,24.56
2023-03-04T09:13:55.278Z,24.58
2023-03-04T09:15:09.911Z,24.58
2023-03-04T09:15:56.255Z,24.59
2023-03-04T09:16:55.207Z,24.60
2023-03-04T09:17:55.196Z,24.59
2023-03-04T09:18:55.177Z,24.62
2023-03-04T09:19:56.749Z,24.62
2023-03-04T09:20:55.142Z,24.64
2023-03-04T09:21:55.114Z,24.60
2023-03-04T09:22:55.102Z,24.63
2023-03-04T09:23:55.076Z,24.64
2023-03-04T09:24:55.057Z,24.64
2023-03-04T09:25:55.034Z,24.63
2023-03-04T09:26:55.015Z,24.67
2023-03-04T09:27:54.997Z,24.66
2023-03-04T09:28:54.984Z,24.66
2023-03-04T09:29:54.950Z,24.66
2023-03-04T09:30:54.942Z,24.63
2023-03-04T09:31:54.909Z,24.69
2023-03-04T09:32:54.891Z,24.64
2023-03-04T09:33:54.883Z,24.66
2023-03-04T09:34:54.864Z,24.67
2023-03-04T09:35:54.899Z,24.67
2023-03-04T09:36:54.825Z,24.63
2023-03-04T09:37:54.793Z,24.66
2023-03-04T09:38:54.771Z,24.70
2023-03-04T09:39:54.762Z,24.70
2023-03-04T09:40:54.732Z,24.70
2023-03-04T09:41:54.767Z,24.67
2023-03-04T09:42:54.692Z,24.69
2023-03-04T09:43:54.662Z,24.73
2023-03-04T09:44:54.658Z,24.73
2023-03-04T09:45:54.623Z,24.70
2023-03-04T09:46:54.712Z,24.71
2023-03-04T09:47:54.611Z,24.71
2023-03-04T09:48:54.567Z,24.71
2023-03-04T09:49:54.548Z,24.70
2023-03-04T09:50:54.511Z,24.70
2023-03-04T09:51:54.519Z,24.76
2023-03-04T09:52:54.469Z,24.73
2023-03-04T09:53:54.441Z,24.76
2023-03-04T09:54:54.434Z,24.71
2023-03-04T09:55:54.391Z,24.76
2023-03-04T09:56:54.365Z,24.74
2023-03-04T10:33:53.608Z,24.84
2023-03-04T10:34:53.582Z,24.88
2023-03-04T10:35:53.582Z,24.88
2023-03-04T10:36:53.539Z,24.86
2023-03-04T10:37:53.530Z,24.83
2023-03-04T10:38:53.509Z,24.87
2023-03-04T10:39:53.485Z,24.84
2023-03-04T10:40:53.475Z,24.88
2023-03-04T10:41:53.521Z,24.87
2023-03-04T10:42:53.414Z,24.88
2023-03-04T10:43:53.389Z,24.90
2023-03-04T10:44:53.410Z,24.88
2023-03-04T10:45:53.411Z,24.90
2023-03-04T10:46:53.328Z,24.91
2023-03-04T10:47:53.323Z,24.90
2023-03-04T10:50:48.227Z,24.94
2023-03-04T10:51:48.173Z,24.91
2023-03-04T10:52:48.117Z,24.93
2023-03-04T10:53:48.067Z,24.91
2023-03-04T10:54:47.990Z,24.93
2023-03-04T10:55:48.091Z,24.93
2023-03-04T10:56:47.847Z,24.88
2023-03-04T10:57:47.791Z,24.91
2023-03-04T10:58:47.707Z,24.93
2023-03-04T10:59:47.645Z,24.91
2023-03-04T11:00:47.636Z,24.95
2023-03-04T11:01:47.517Z,24.91
2023-03-04T11:02:47.456Z,24.95
2023-03-04T11:03:47.441Z,24.95
2023-03-04T11:04:47.323Z,24.95
2023-03-04T11:05:47.249Z,24.97
2023-03-04T11:06:47.186Z,24.94
2023-03-04T11:07:55.075Z,24.98
2023-03-04T11:08:48.065Z,24.94
2023-03-04T11:09:46.979Z,24.98
2023-03-04T11:10:46.918Z,24.98
2023-03-04T11:11:46.840Z,24.98
2023-03-04T11:12:46.772Z,24.97
2023-03-04T11:13:46.696Z,24.98
2023-03-04T11:14:46.615Z,24.98
2023-03-04T11:15:46.546Z,24.99
2023-03-04T11:16:46.520Z,24.99
2023-03-04T11:17:46.420Z,25.01
2023-03-04T11:18:46.347Z,25.03
2023-03-04T11:19:46.291Z,25.04
2023-03-04T11:20:46.209Z,25.03
2023-03-04T11:21:46.148Z,25.03
2023-03-04T11:22:46.078Z,25.05
2023-03-04T11:23:46.019Z,25.04
2023-03-04T11:24:46.109Z,25.03
2023-03-04T11:25:45.869Z,25.07
2023-03-04T11:26:45.811Z,25.08
2023-03-04T11:27:45.732Z,25.08
2023-03-04T11:28:45.647Z,25.05
2023-03-04T11:29:45.589Z,25.07
2023-03-04T11:30:45.522Z,25.05
2023-03-04T11:31:45.524Z,25.08
2023-03-04T11:32:45.473Z,25.07
2023-03-04T11:33:45.335Z,25.07
2023-03-04T13:41:36.859Z,25.35
2023-03-04T13:42:36.790Z,25.36
2023-03-04T13:43:36.734Z,25.41
2023-03-04T13:44:36.673Z,25.42
2023-03-04T13:45:36.591Z,25.42
2023-03-04T13:46:36.542Z,25.43
2023-03-04T13:47:36.474Z,25.45
2023-03-04T13:48:36.468Z,25.48
2023-03-04T13:49:36.358Z,25.48
2023-03-04T13:50:37.666Z,25.50
2023-03-04T13:51:36.227Z,25.54
2023-03-04T13:52:36.156Z,25.54
2023-03-04T13:53:36.096Z,25.56
2023-03-04T13:54:36.035Z,25.59
2023-03-04T13:55:35.962Z,25.63
2023-03-04T13:56:37.480Z,25.66
2023-03-04T13:57:35.821Z,25.62
2023-03-04T13:58:35.742Z,25.66
2023-03-04T13:59:35.698Z,25.69
2023-03-04T14:00:35.667Z,25.70
2023-03-04T14:01:35.539Z,25.73
2023-03-04T14:02:35.468Z,25.73
2023-03-04T14:03:35.498Z,25.75
2023-03-04T14:04:35.339Z,25.75
2023-03-04T15:47:34.840Z,25.90
2023-03-04T15:48:27.469Z,25.90
2023-03-04T15:49:27.383Z,25.88
2023-03-04T15:50:27.306Z,25.87
2023-03-04T15:51:27.242Z,25.86
2023-03-04T15:52:27.157Z,25.83
2023-03-04T15:53:27.108Z,25.83
2023-03-04T15:54:27.024Z,25.83
2023-03-04T15:55:26.965Z,25.80
2023-03-04T15:56:26.885Z,25.80
2023-03-04T15:57:26.816Z,25.80
2023-03-04T15:58:26.774Z,25.79
2023-03-04T15:59:26.659Z,25.79
2023-03-04T16:00:26.607Z,25.77
2023-03-04T16:01:26.611Z,25.76
2023-03-04T16:02:26.474Z,25.75
2023-03-04T16:03:26.412Z,25.73
2023-03-04T16:04:26.340Z,25.73
2023-03-04T16:05:26.241Z,25.72
2023-03-04T16:06:26.177Z,25.70
2023-03-04T16:07:26.105Z,25.72
2023-03-04T16:08:26.040Z,25.70
2023-03-04T16:09:25.971Z,25.66
2023-03-04T16:10:25.906Z,25.68
2023-03-04T16:11:25.843Z,25.65
2023-03-04T16:12:25.758Z,25.65
2023-03-04T16:13:25.683Z,25.63
2023-03-04T16:14:25.613Z,25.62
2023-03-04T16:15:25.555Z,25.63
2023-03-04T16:16:25.475Z,25.60
2023-03-04T16:17:25.392Z,25.60
2023-03-04T17:58:18.001Z,25.04
2023-03-04T17:59:17.945Z,24.99
2023-03-04T18:00:17.870Z,25.01
2023-03-04T18:01:17.814Z,25.01
2023-03-04T18:02:17.867Z,25.01
2023-03-04T18:03:17.691Z,25.01
2023-03-04T18:04:17.632Z,24.99
2023-03-04T18:05:17.566Z,24.98
2023-03-04T18:06:17.503Z,25.01
2023-03-04T18:07:17.441Z,24.98
2023-03-04T18:08:17.376Z,24.95
2023-03-04T18:09:17.328Z,24.98
2023-03-04T18:10:17.240Z,24.95
2023-03-04T18:11:17.166Z,24.97
2023-03-04T18:12:17.092Z,24.94
2023-03-04T18:13:17.019Z,24.93
2023-03-04T18:14:16.966Z,24.95
2023-03-04T18:15:16.873Z,24.94
2023-03-04T18:16:16.843Z,24.93
2023-03-04T18:17:16.740Z,24.93
2023-03-04T18:18:16.680Z,24.93
2023-03-04T18:19:18.679Z,24.94
2023-03-04T18:20:16.501Z,24.91
2023-03-04T18:21:16.427Z,24.91
2023-03-04T18:22:16.371Z,24.91
2023-03-04T18:23:16.280Z,24.90
2023-03-04T18:24:16.216Z,24.88
2023-03-04T18:25:16.138Z,24.90
2023-03-04T18:26:16.062Z,24.88
2023-03-04T18:27:15.998Z,24.87
2023-03-04T18:28:15.917Z,24.88
2023-03-04T18:29:15.859Z,24.84
2023-03-04T18:30:15.788Z,24.84
2023-03-04T18:31:15.800Z,24.87
2023-03-04T18:32:15.760Z,24.84
2023-03-04T18:33:15.609Z,24.86
2023-03-04T18:34:15.561Z,24.83
2023-03-04T18:35:15.509Z,24.81
2023-03-04T18:36:15.412Z,24.78
2023-03-04T18:37:15.359Z,24.81
2023-03-04T18:38:15.324Z,24.81
2023-03-04T18:39:15.233Z,24.80
2023-03-04T18:40:15.190Z,24.81
2023-03-04T18:41:15.107Z,24.78
2023-03-04T18:42:15.048Z,24.78
2023-03-04T18:43:14.973Z,24.77
2023-03-04T18:44:14.892Z,24.77
2023-03-04T18:45:14.833Z,24.74
2023-03-04T18:46:14.822Z,24.76
2023-03-04T18:47:14.687Z,24.70
2023-03-04T18:48:14.636Z,24.74
2023-03-04T18:49:14.580Z,24.74
2023-03-04T18:50:14.511Z,24.73
2023-03-04T18:51:14.443Z,24.71
2023-03-04T18:52:14.383Z,24.70
2023-03-04T18:53:14.314Z,24.71
2023-03-04T18:54:14.244Z,24.70
2023-03-04T18:55:14.184Z,24.71
2023-03-04T18:56:14.113Z,24.73
2023-03-04T18:57:14.022Z,24.69
2023-03-04T18:58:13.958Z,24.69
2023-03-04T18:59:13.887Z,24.70
2023-03-04T19:00:13.818Z,24.70
2023-03-04T19:01:13.879Z,24.70
2023-03-04T19:02:13.674Z,24.67
2023-03-04T19:03:13.606Z,24.69
2023-03-04T19:04:13.645Z,24.67
2023-03-04T19:05:13.471Z,24.70
2023-03-04T19:06:13.396Z,24.67
2023-03-04T19:07:13.364Z,24.69
2023-03-04T19:08:13.261Z,24.64
2023-03-04T19:09:13.208Z,24.63
2023-03-04T19:10:13.146Z,24.64
2023-03-04T19:11:13.081Z,24.60
2023-03-04T19:12:13.023Z,24.62
2023-03-04T19:13:12.944Z,24.62
2023-03-04T19:14:12.922Z,24.62
2023-03-04T19:15:12.835Z,24.62
2023-03-04T19:16:12.842Z,24.63
2023-03-04T19:17:12.701Z,24.60
2023-03-04T19:18:12.637Z,24.63
2023-03-04T19:19:12.561Z,24.62
2023-03-04T19:20:12.512Z,24.59
2023-03-04T19:21:12.432Z,24.58
2023-03-04T19:22:12.358Z,24.59
2023-03-04T19:23:12.314Z,24.59
2023-03-04T19:24:12.239Z,24.59
2023-03-04T19:25:12.204Z,24.60
2023-03-04T19:26:12.110Z,24.58
2023-03-04T19:27:12.046Z,24.58
2023-03-04T19:28:11.977Z,24.56
2023-03-04T19:29:11.925Z,24.53
2023-03-04T19:30:11.871Z,24.56
2023-03-04T19:31:11.845Z,24.58
2023-03-04T19:32:11.775Z,24.56
2023-03-04T19:33:11.715Z,24.52
2023-03-04T19:34:11.624Z,24.56
2023-03-04T19:35:11.583Z,24.53
2023-03-04T19:36:11.543Z,24.55
2023-03-04T19:37:11.467Z,24.53
2023-03-04T19:38:11.378Z,24.53
2023-03-04T19:39:11.332Z,24.53
2023-03-04T19:40:11.279Z,24.50
2023-03-04T19:41:11.236Z,24.50
2023-03-04T19:42:11.202Z,24.52
2023-03-04T19:43:11.087Z,24.52
2023-03-04T19:44:11.014Z,24.53
2023-03-04T19:45:10.953Z,24.48
2023-03-04T19:46:11.009Z,24.50
2023-03-04T19:47:10.833Z,24.52
2023-03-04T19:48:10.813Z,24.49
2023-03-04T19:49:10.717Z,24.50
2023-03-04T19:50:10.664Z,24.49
2023-03-04T19:51:10.605Z,24.46
2023-03-04T19:52:10.581Z,24.48
2023-03-04T19:53:10.482Z,24.48
2023-03-04T19:54:10.444Z,24.48
2023-03-04T19:55:10.374Z,24.49
2023-03-04T19:56:10.301Z,24.46
2023-03-04T19:57:10.246Z,24.44
2023-03-04T19:58:10.161Z,24.46
2023-03-04T19:59:10.104Z,24.48
2023-03-04T20:00:10.108Z,24.46
2023-03-04T20:01:10.020Z,24.46
2023-03-04T20:02:09.913Z,24.43
2023-03-04T20:03:09.829Z,24.43
2023-03-04T20:04:09.822Z,24.43
2023-03-04T20:05:09.710Z,24.49
2023-03-04T20:06:09.626Z,24.44
2023-03-04T20:07:09.556Z,24.44
2023-03-04T20:08:09.486Z,24.43
2023-03-04T20:09:09.427Z,24.43
2023-03-04T20:10:09.355Z,24.42
2023-03-04T20:11:09.300Z,24.44
2023-03-04T20:13:09.184Z,24.46
2023-03-04T20:14:09.109Z,24.40
2023-03-04T20:15:09.039Z,24.42
2023-03-04T20:16:09.136Z,24.40
2023-03-04T20:17:08.923Z,24.40
2023-03-04T20:18:08.860Z,24.43
2023-03-04T20:19:10.049Z,24.39
2023-03-04T20:20:08.752Z,24.39
2023-03-04T20:21:08.701Z,24.40
2023-03-04T20:22:08.622Z,24.39
2023-03-04T20:23:08.569Z,24.40
2023-03-04T20:24:08.500Z,24.42
2023-03-04T20:25:08.426Z,24.39
2023-03-04T20:26:08.437Z,24.39
2023-03-04T20:27:08.308Z,24.38
2023-03-04T20:28:08.260Z,24.38
2023-03-04T20:29:08.196Z,24.38
2023-03-04T20:30:08.142Z,24.38
2023-03-04T20:31:08.131Z,24.36
2023-03-04T20:32:08.091Z,24.36
2023-03-04T20:33:07.956Z,24.35
2023-03-04T20:34:07.902Z,24.36
2023-03-04T20:35:07.827Z,24.35
2023-03-04T20:36:07.770Z,24.36
2023-03-04T20:37:07.722Z,24.35
2023-03-04T20:38:07.642Z,24.33
2023-03-04T20:39:18.323Z,24.33
2023-03-04T20:40:08.529Z,24.33
2023-03-04T20:41:07.473Z,24.35
2023-03-04T20:42:07.427Z,24.33
2023-03-04T20:43:07.368Z,24.33
2023-03-04T20:44:07.310Z,24.32
2023-03-04T20:45:07.256Z,24.32
2023-03-04T20:46:07.216Z,24.33
2023-03-04T20:47:07.160Z,24.33
2023-03-04T20:48:07.093Z,24.33
2023-03-04T20:49:07.035Z,24.32
2023-03-04T20:50:06.983Z,24.32
2023-03-04T20:51:06.924Z,24.32
2023-03-04T20:52:06.859Z,24.32
2023-03-04T20:53:06.814Z,24.31
2023-03-04T20:54:06.749Z,24.33
2023-03-04T20:55:06.708Z,24.31
2023-03-04T20:56:06.635Z,24.29
2023-03-04T20:57:06.580Z,24.29
2023-03-04T20:58:06.544Z,24.29
2023-03-04T20:59:06.471Z,24.31
2023-03-04T21:00:06.410Z,24.31
2023-03-04T21:01:06.363Z,24.28
2023-03-04T21:02:06.328Z,24.29
2023-03-04T21:03:06.240Z,24.28
2023-03-04T21:04:06.253Z,24.29
2023-03-04T21:05:06.132Z,24.31
2023-03-04T21:06:06.072Z,24.28
2023-03-04T21:07:06.002Z,24.28
2023-03-04T21:08:05.948Z,24.28
2023-03-04T21:09:05.898Z,24.28
2023-03-04T21:10:05.835Z,24.25
2023-03-04T21:11:05.789Z,24.29
2023-03-04T21:12:05.748Z,24.29
2023-03-04T21:13:05.667Z,24.26
2023-03-04T21:14:05.601Z,24.28
2023-03-04T21:15:05.570Z,24.28
2023-03-04T21:16:05.550Z,24.25
2023-03-04T21:17:05.455Z,24.26
2023-03-04T21:18:05.419Z,24.25
2023-03-04T21:19:05.382Z,24.25
2023-03-04T21:20:05.279Z,24.25
2023-03-04T21:21:05.225Z,24.25
2023-03-04T21:22:05.182Z,24.25
2023-03-04T21:23:05.108Z,24.26
2023-03-04T21:24:05.053Z,24.26
2023-03-04T21:25:05.002Z,24.25
2023-03-04T21:26:04.958Z,24.25
2023-03-04T21:27:04.910Z,24.23
2023-03-04T21:28:04.846Z,24.25
2023-03-04T21:29:04.775Z,24.23
2023-03-04T21:30:04.724Z,24.23
2023-03-04T21:31:04.713Z,24.23
2023-03-04T21:32:20.741Z,24.22
2023-03-04T21:33:05.645Z,24.23
2023-03-04T21:34:04.525Z,24.22
2023-03-04T21:35:04.457Z,24.25
2023-03-04T21:36:04.398Z,24.23
2023-03-04T21:37:04.348Z,24.22
2023-03-04T21:38:04.294Z,24.21
2023-03-04T21:39:04.235Z,24.19
2023-03-04T21:40:04.201Z,24.23
2023-03-04T21:41:04.137Z,24.22
2023-03-04T21:42:04.084Z,24.22
2023-03-04T21:43:04.025Z,24.21
2023-03-04T21:44:03.962Z,24.21
2023-03-04T21:45:03.910Z,24.21
2023-03-04T21:46:03.920Z,24.19
2023-03-04T21:47:03.800Z,24.19
2023-03-04T21:48:03.750Z,24.22
2023-03-04T21:49:03.701Z,24.21
2023-03-04T21:50:03.649Z,24.19
2023-03-04T21:51:03.564Z,24.18
2023-03-04T21:52:03.501Z,24.19
2023-03-04T21:53:03.503Z,24.19
2023-03-04T21:54:03.395Z,24.18
2023-03-04T21:55:03.325Z,24.16
2023-03-04T21:56:03.275Z,24.18
2023-03-04T21:57:03.220Z,24.16
2023-03-04T21:58:03.172Z,24.16
2023-03-04T21:59:03.108Z,24.18
2023-03-04T22:00:04.858Z,24.18
2023-03-04T22:01:03.127Z,24.21
2023-03-04T22:02:03.136Z,24.14
2023-03-04T22:03:03.021Z,24.15
2023-03-04T22:04:02.969Z,24.15
2023-03-04T22:05:02.915Z,24.18
2023-03-04T22:06:02.923Z,24.18
2023-03-04T22:07:02.808Z,24.15
2023-03-04T22:08:02.753Z,24.16
2023-03-04T22:09:02.709Z,24.16
2023-03-04T22:10:02.670Z,24.16
2023-03-04T22:11:02.604Z,24.16
2023-03-04T22:12:02.558Z,24.16
2023-03-04T22:13:02.527Z,24.14
2023-03-04T22:14:02.464Z,24.14
2023-03-04T22:15:02.423Z,24.14
2023-03-04T22:16:02.385Z,24.15
2023-03-04T22:17:02.427Z,24.14
2023-03-04T22:18:02.243Z,24.16
2023-03-04T22:19:02.213Z,24.16
2023-03-04T22:20:02.140Z,24.12
2023-03-04T22:21:02.108Z,24.14
2023-03-04T22:22:02.029Z,24.14
2023-03-04T22:23:01.982Z,24.12
2023-03-04T22:24:01.932Z,24.14
2023-03-04T22:25:01.881Z,24.15
2023-03-04T22:26:01.869Z,24.14
2023-03-04T22:27:01.780Z,24.11
2023-03-04T22:28:01.734Z,24.15
2023-03-04T22:29:01.686Z,24.12
2023-03-04T22:30:01.638Z,24.14
2023-03-04T22:31:01.580Z,24.11
2023-03-04T22:32:01.667Z,24.12
2023-03-04T22:33:01.479Z,24.15
2023-03-04T22:34:01.440Z,24.11
2023-03-04T22:35:01.379Z,24.12
2023-03-04T22:36:01.386Z,24.14
2023-03-04T22:37:01.270Z,24.14
2023-03-04T22:38:01.236Z,24.09
2023-03-04T22:39:01.184Z,24.09
2023-03-04T22:40:01.114Z,24.11
2023-03-04T22:41:01.071Z,24.08
2023-03-04T22:42:01.024Z,24.09
2023-03-04T22:43:00.964Z,24.14
2023-03-04T22:44:00.924Z,24.11
2023-03-04T22:45:00.899Z,24.09
2023-03-04T22:46:00.873Z,24.11
2023-03-04T22:47:00.748Z,24.12
2023-03-04T22:48:00.701Z,24.09
2023-03-04T22:49:00.663Z,24.11
2023-03-04T22:50:00.594Z,24.09
2023-03-04T22:51:00.543Z,24.09
2023-03-04T22:52:00.496Z,24.09
2023-03-04T22:53:00.462Z,24.07
2023-03-04T22:54:00.404Z,24.08
2023-03-04T22:55:00.345Z,24.05
2023-03-04T22:56:00.293Z,24.11
2023-03-04T22:57:00.281Z,24.08